Sant Hilari Sacalm





Hora UTC 16:15
Temperatura 7.4 ºC
Suelo 15 cm 6.1 ºC
Humedad 80.5 %
Presión 1011.4 hPa
Pluja 0.0 mm
Velocidad viento 12.9 km/h
Dirección viento WNW
Radiación solar 5.9 W/m²

Datos diarios 2021-12-04



Hora UTC (invierno +1h; verano +2h)
Temperatura (ºC) Humedad (%) Presión (hPa) Velocidad viento (km/h) Precipitación (mm) Radiación solar (W/m²)
Hora UTC Aire Suelo 15 cm Humedad Presión Vel. Dir. Vel. Max Dir. Intent. máx 5 min. Rad. Sol.
00:05 5.8 4.1 77.3 1015.9 11.8 W 11.8 W 0.0 0.1
00:10 6.0 4.1 76.0 1015.9 11.7 WSW 30.4 W 0.0 0.1
00:15 6.0 4.2 77.4 1015.8 17.0 W 38.5 NW 0.0 0.1
00:20 5.9 4.3 79.2 1015.7 17.1 WNW 33.1 WNW 0.0 0.1
00:25 5.8 4.2 80.2 1015.6 18.3 W 38.5 W 0.0 0.1
00:30 5.6 4.1 80.8 1015.6 16.3 WNW 35.8 WNW 0.0 0.1
00:35 5.6 4.0 81.2 1015.5 17.9 WNW 30.4 W 0.0 0.1
00:40 5.5 3.9 81.5 1015.3 17.2 W 33.1 WNW 0.0 0.1
00:45 5.4 3.9 81.4 1015.2 18.2 WNW 38.5 NW 0.0 0.1
00:50 5.4 4.0 80.6 1015.0 19.9 WNW 41.2 NW 0.0 0.1
00:55 5.4 4.1 80.3 1014.9 19.8 WNW 38.5 WNW 0.0 0.1
01:00 5.5 4.3 80.0 1014.8 19.5 WNW 38.5 W 0.0 0.1
01:05 5.4 4.3 80.2 1014.8 21.7 W 35.8 W 0.0 0.1
01:10 5.4 4.3 80.6 1014.7 20.7 W 41.2 WNW 0.0 0.1
01:15 5.4 4.4 80.4 1014.6 18.3 WNW 38.5 WNW 0.0 0.1
01:20 5.4 4.3 79.5 1014.6 20.9 W 43.9 WNW 0.0 0.1
01:25 5.5 4.4 78.2 1014.6 19.2 WNW 35.8 WNW 0.0 0.1
01:30 5.5 4.3 77.1 1014.6 20.8 W 38.5 WSW 0.0 0.1
01:35 5.6 4.2 76.5 1014.6 18.0 W 41.2 WNW 0.0 0.1
01:40 5.7 4.2 75.3 1014.7 18.9 W 35.8 WNW 0.0 0.1
01:45 5.6 4.1 74.6 1014.9 13.4 WSW 27.7 WSW 0.0 0.2
01:50 5.7 4.2 72.7 1014.9 14.7 W 35.8 WNW 0.0 0.1
01:55 5.9 4.3 71.4 1014.7 16.4 WNW 30.4 WSW 0.0 0.1
02:00 5.9 4.5 72.3 1014.6 20.2 WNW 38.5 WSW 0.0 0.1
02:05 5.7 4.4 74.6 1014.6 17.4 WNW 35.8 NW 0.0 0.1
02:10 5.6 4.3 76.3 1014.7 22.4 WNW 43.9 W 0.0 0.1
02:15 5.5 4.2 77.5 1014.7 23.1 W 43.9 WNW 0.0 0.1
02:20 5.4 4.1 78.4 1014.7 22.1 W 38.5 WNW 0.0 0.1
02:25 5.4 4.0 79.2 1014.6 21.8 WNW 41.2 WNW 0.0 0.1
02:30 5.3 3.9 78.7 1014.6 20.3 WNW 38.5 WNW 0.0 0.1
02:35 5.4 3.9 77.8 1014.6 20.8 W 35.8 W 0.0 0.1
02:40 5.3 3.8 78.6 1014.6 20.2 W 33.1 NNW 0.0 0.1
02:45 5.2 3.6 80.1 1014.6 21.0 W 38.5 W 0.0 0.1
02:50 5.1 3.5 80.5 1014.4 17.6 W 35.8 W 0.0 0.1
02:55 5.1 3.5 80.3 1014.3 18.0 WNW 35.8 WNW 0.0 0.1
03:00 5.1 3.6 80.3 1014.2 20.4 WNW 38.5 WNW 0.0 0.1
03:05 5.0 3.6 79.8 1014.2 20.7 WNW 41.2 W 0.0 0.1
03:10 5.0 3.6 80.2 1014.0 23.0 WNW 49.3 NNW 0.0 0.1
03:15 5.0 3.6 79.6 1014.0 23.8 WNW 49.3 WNW 0.0 0.1
03:20 5.0 3.7 78.6 1014.0 21.1 WNW 41.2 WNW 0.0 0.1
03:25 5.0 3.7 78.3 1014.0 24.6 WNW 41.2 W 0.0 0.1
03:30 5.0 3.7 78.4 1014.0 21.3 WNW 46.6 WNW 0.0 0.1
03:35 4.9 3.6 78.7 1014.0 21.9 WNW 43.9 WNW 0.0 0.1
03:40 4.8 3.5 79.2 1014.0 19.2 WNW 38.5 NW 0.0 0.1
03:45 4.7 3.3 80.9 1014.1 23.8 WNW 38.5 WNW 0.0 0.1
03:50 4.5 3.2 82.1 1014.0 19.5 WNW 43.9 WNW 0.0 0.1
03:55 4.5 3.1 82.6 1013.9 17.0 WNW 33.1 WNW 0.0 0.1
04:00 4.5 3.1 83.5 1013.9 20.4 WNW 38.5 WNW 0.0 0.1
04:05 4.6 3.2 83.4 1013.9 20.4 WNW 38.5 NW 0.0 0.1
04:10 4.5 3.0 84.0 1013.9 15.6 WNW 35.8 W 0.0 0.1
04:15 4.4 2.8 84.8 1013.8 14.4 WNW 27.7 W 0.0 0.1
04:20 4.2 2.6 86.3 1013.8 16.7 WNW 35.8 WNW 0.0 0.1
04:25 4.0 2.6 87.8 1013.8 20.4 W 35.8 WSW 0.0 0.1
04:30 3.9 2.5 89.0 1013.9 20.6 W 38.5 WNW 0.0 0.1
04:35 3.9 2.5 89.7 1013.9 19.3 WNW 41.2 W 0.0 0.1
04:40 4.1 2.7 89.7 1013.9 20.9 WNW 38.5 WNW 0.0 0.1
04:45 4.1 2.7 89.3 1013.8 25.4 WNW 38.5 NW 0.0 0.1
04:50 4.1 2.8 89.5 1013.7 25.2 WNW 35.8 NNW 0.0 0.1
04:55 4.1 2.8 89.2 1013.8 24.3 WNW 41.2 WNW 0.0 0.1
05:00 4.2 2.8 89.7 1013.8 21.3 WNW 41.2 W 0.0 0.1
05:05 4.1 2.8 89.7 1013.8 21.7 WNW 38.5 WNW 0.0 0.1
05:10 3.9 2.7 90.7 1013.8 21.2 WNW 41.2 WNW 0.0 0.1
05:15 3.8 2.5 91.7 1013.8 20.9 WNW 41.2 W 0.0 0.1
05:20 3.7 2.4 92.3 1013.8 21.9 W 35.8 WSW 0.0 0.1
05:25 3.6 2.4 92.7 1013.8 21.9 WNW 35.8 WNW 0.0 0.1
05:30 3.7 2.3 93.0 1013.8 21.0 W 38.5 W 0.0 0.1
05:35 3.7 2.4 92.8 1013.7 20.8 WNW 38.5 WNW 0.0 0.1
05:40 3.8 2.4 92.6 1013.8 20.9 WNW 41.2 NW 0.0 0.1
05:45 3.7 2.3 92.4 1013.7 18.5 WNW 33.1 W 0.0 0.1
05:50 3.7 2.3 92.5 1013.6 20.2 WNW 35.8 WNW 0.0 0.1
05:55 3.9 2.4 92.3 1013.6 23.7 WNW 43.9 WNW 0.0 0.1
06:00 3.9 2.5 91.7 1013.5 24.7 WNW 43.9 W 0.0 0.1
06:05 3.8 2.5 92.0 1013.4 23.0 WNW 43.9 WNW 0.0 0.1
06:10 3.9 2.6 92.5 1013.2 24.4 W 49.3 WNW 0.0 0.1
06:15 3.9 2.6 92.6 1013.2 25.2 W 52.0 WNW 0.0 0.1
06:20 3.8 2.5 92.9 1013.1 25.6 W 49.3 WNW 0.0 0.1
06:25 3.8 2.6 93.2 1013.0 26.5 WNW 49.3 NW 0.0 0.1
06:30 3.7 2.6 93.4 1013.0 27.6 WNW 52.0 WNW 0.0 0.1
06:35 3.7 2.5 93.8 1013.0 27.5 WNW 52.0 NW 0.0 0.1
06:40 3.8 2.7 93.8 1013.0 29.8 WNW 52.0 WNW 0.0 0.2
06:45 3.9 2.7 93.5 1013.0 26.5 WNW 60.1 W 0.0 0.5
06:50 3.9 2.6 93.5 1012.9 27.2 WNW 49.3 W 0.0 1.1
06:55 3.9 2.6 93.7 1013.0 26.1 W 52.0 W 0.0 1.9
07:00 3.9 2.7 93.7 1012.9 27.6 W 54.7 NW 0.0 3.1
07:05 4.0 2.7 93.6 1012.8 27.2 WNW 43.9 WNW 0.0 4.7
07:10 4.0 2.8 93.4 1012.7 26.9 WNW 54.7 WNW 0.0 6.5
07:15 4.0 2.8 93.1 1012.7 29.2 WNW 49.3 NW 0.0 8.1
07:20 4.1 2.8 92.9 1012.6 24.5 WNW 49.3 W 0.0 9.8
07:25 4.2 2.9 92.7 1012.6 26.6 WNW 49.3 W 0.0 11.2
07:30 4.2 2.9 92.3 1012.7 26.6 WNW 52.0 WSW 0.0 12.8
07:35 4.2 2.9 92.1 1012.8 22.1 WNW 43.9 NW 0.0 14.8
07:40 4.2 2.9 92.2 1012.8 24.6 W 43.9 W 0.0 54.2
07:45 4.4 3.0 92.0 1012.7 27.1 WNW 52.0 W 0.0 96.7
07:50 4.5 3.3 91.3 1012.8 28.8 WNW 52.0 W 0.0 107.0
07:55 4.6 3.6 90.9 1012.7 26.7 WNW 52.0 NW 0.0 111.9
08:00 4.6 3.9 90.9 1012.7 27.5 W 54.7 WSW 0.0 83.8
08:05 4.4 3.8 91.3 1012.7 29.7 W 60.1 WNW 0.0 37.6
08:10 4.3 3.6 92.0 1012.7 25.1 W 49.3 NW 0.0 49.8
08:15 4.2 3.5 92.4 1012.7 26.6 WNW 54.7 WNW 0.0 49.0
08:20 4.2 3.5 92.7 1012.7 24.7 WNW 52.0 WNW 0.0 67.0
08:25 4.2 3.6 93.0 1012.6 24.2 W 49.3 WSW 0.0 76.4
08:30 4.2 3.7 93.4 1012.6 26.7 WNW 52.0 NW 0.0 75.1
08:35 4.2 3.9 93.6 1012.7 26.2 WNW 57.4 W 0.0 102.6
08:40 4.2 4.0 93.7 1012.7 30.8 WNW 54.7 WNW 0.0 113.3
08:45 4.2 4.3 93.9 1012.6 25.4 WNW 52.0 W 0.0 148.9
08:50 4.3 4.5 93.9 1012.5 30.2 WNW 57.4 WNW 0.0 155.9
08:55 4.3 4.7 93.9 1012.4 30.2 WNW 54.7 W 0.0 167.4
09:00 4.4 5.0 94.0 1012.3 26.9 WNW 52.0 W 0.0 218.1
09:05 4.5 5.3 93.8 1012.3 28.3 W 52.0 WNW 0.0 227.8
09:10 4.7 5.7 93.5 1012.2 26.5 W 49.3 W 0.0 281.9
09:15 5.0 6.4 92.4 1012.2 27.8 W 52.0 WNW 0.0 341.5
09:20 5.2 6.8 90.8 1012.2 25.9 WNW 57.4 NW 0.0 342.5
09:25 5.2 6.9 90.2 1012.1 26.8 WNW 49.3 NNW 0.0 361.9
09:30 5.4 7.4 89.8 1012.1 26.2 WNW 49.3 NNW 0.0 395.2
09:35 5.5 7.5 89.0 1012.1 30.4 WNW 57.4 WNW 0.0 413.6
09:40 5.6 7.8 88.4 1012.2 28.2 W 65.5 WNW 0.0 426.4
09:45 5.8 8.2 87.6 1012.2 27.2 W 52.0 WNW 0.0 427.2
09:50 5.7 7.7 87.5 1012.2 28.6 W 54.7 W 0.0 242.8
09:55 5.6 7.1 88.1 1012.2 27.4 W 60.1 W 0.0 308.5
10:00 5.7 7.3 87.9 1012.2 25.5 W 54.7 WSW 0.0 276.7
10:05 5.5 6.7 87.7 1012.1 23.8 W 52.0 W 0.0 129.5
10:10 5.5 6.1 88.2 1012.0 24.0 W 52.0 W 0.0 94.5
10:15 5.3 5.5 88.6 1012.0 21.8 W 43.9 WNW 0.0 86.2
10:20 5.3 5.5 89.2 1011.9 24.1 W 52.0 W 0.0 174.2
10:25 5.6 5.8 88.0 1011.9 23.5 W 43.9 W 0.0 119.7
10:30 5.8 6.2 86.9 1011.8 23.4 W 52.0 W 0.0 286.7
10:35 6.2 6.9 85.4 1011.7 20.4 WNW 43.9 W 0.0 185.8
10:40 6.2 6.7 84.6 1011.6 22.6 WNW 43.9 WNW 0.0 113.9
10:45 6.2 6.4 84.7 1011.6 28.0 WNW 54.7 WNW 0.0 120.5
10:50 6.3 6.3 84.5 1011.6 25.2 WNW 49.3 NW 0.0 141.8
10:55 6.4 6.4 84.3 1011.5 25.1 WNW 46.6 N 0.0 136.4
11:00 6.4 6.4 83.9 1011.5 25.0 WNW 52.0 WNW 0.0 134.9
11:05 6.6 6.5 83.3 1011.5 25.3 WNW 54.7 WNW 0.0 218.4
11:10 7.0 7.4 82.1 1011.4 22.6 WNW 46.6 NW 0.0 261.9
11:15 7.1 7.6 80.9 1011.4 25.4 WNW 46.6 NW 0.0 183.7
11:20 7.0 7.2 80.9 1011.4 22.5 WNW 46.6 WNW 0.0 107.3
11:25 6.9 6.9 81.3 1011.4 22.4 WNW 49.3 WNW 0.0 96.2
11:30 6.9 6.9 81.5 1011.5 13.1 NW 33.1 N 0.0 129.6
11:35 7.2 7.4 80.9 1011.5 14.4 NW 41.2 N 0.0 205.8
11:40 7.5 8.1 79.7 1011.7 16.3 NW 35.8 NNW 0.0 247.3
11:45 7.8 8.7 79.1 1011.8 12.1 NNW 33.1 NNW 0.0 189.1
11:50 7.8 8.8 77.8 1011.9 15.0 NW 38.5 NNW 0.0 157.6
11:55 7.7 8.6 78.2 1011.9 15.3 WNW 35.8 NW 0.0 142.9
12:00 7.7 8.6 78.8 1012.0 12.9 NW 25.0 N 0.0 175.6
12:05 7.7 8.7 78.6 1012.0 14.1 NW 33.1 NW 0.0 183.4
12:10 7.7 8.8 78.8 1011.9 13.3 WNW 27.7 WNW 0.0 214.0
12:15 7.9 9.2 78.2 1011.9 15.0 NW 33.1 W 0.0 238.6
12:20 7.9 9.1 78.0 1011.9 16.8 WNW 38.5 WNW 0.0 227.2
12:25 8.0 9.2 77.8 1011.7 17.4 WNW 30.4 WNW 0.0 259.6
12:30 8.5 10.4 76.9 1011.6 13.2 NW 35.8 NNW 0.0 493.6
12:35 9.2 11.9 74.6 1011.6 12.8 NNW 25.0 NNW 0.0 526.2
12:40 9.6 12.7 72.4 1011.4 12.0 NW 19.6 NNW 0.0 501.0
12:45 10.0 13.3 70.5 1011.1 10.4 NNW 22.3 N 0.0 464.2
12:50 10.4 13.9 67.5 1011.0 8.6 NW 16.9 NW 0.0 380.7
12:55 10.5 13.7 65.9 1011.2 15.0 WNW 27.7 WNW 0.0 378.3
13:00 10.2 12.9 66.7 1011.2 9.5 WNW 16.9 NW 0.0 299.3
13:05 10.1 12.8 67.6 1011.2 7.2 NNW 16.9 NNW 0.0 280.5
13:10 9.8 12.1 69.1 1011.3 9.5 NW 22.3 W 0.0 234.0
13:15 9.5 11.4 71.1 1011.6 11.5 NW 30.4 NW 0.0 178.1
13:20 9.1 10.5 72.9 1011.6 14.0 NW 27.7 W 0.0 142.6
13:25 8.7 9.7 74.8 1011.5 11.1 NW 25.0 WNW 0.0 105.9
13:30 8.4 8.9 76.0 1011.4 12.7 NW 25.0 NNW 0.0 81.4
13:35 8.2 8.4 77.4 1011.5 11.6 NW 27.7 NW 0.0 65.5
13:40 7.9 8.0 78.1 1011.5 14.3 WNW 30.4 NW 0.0 60.3
13:45 7.8 7.7 78.8 1011.4 14.1 NW 25.0 WNW 0.0 56.1
13:50 7.7 7.5 79.5 1011.4 12.3 NW 19.6 WNW 0.0 48.3
13:55 7.6 7.3 80.2 1011.3 10.2 NNW 22.3 NNW 0.0 39.2
14:00 7.5 7.1 80.5 1011.2 11.4 NW 19.6 NNW 0.0 33.2
14:05 7.5 7.0 80.4 1011.3 14.5 WNW 38.5 WNW 0.0 34.3
14:10 7.5 6.9 80.5 1011.3 14.9 WNW 33.1 W 0.0 40.6
14:15 7.5 6.9 80.4 1011.2 15.5 WNW 30.4 WNW 0.0 43.5
14:20 7.4 6.9 80.4 1011.3 14.9 WNW 27.7 NW 0.0 41.9
14:25 7.4 6.9 80.4 1011.3 12.3 WNW 27.7 NW 0.0 41.0
14:30 7.4 6.8 80.6 1011.3 11.7 NW 30.4 WNW 0.0 43.7
14:35 7.4 6.8 80.5 1011.3 14.9 NW 25.0 WNW 0.0 51.7
14:40 7.4 6.8 80.6 1011.2 10.6 NW 22.3 NW 0.0 55.7
14:45 7.4 6.8 80.9 1011.1 9.7 NW 19.6 NW 0.0 48.1
14:50 7.4 6.8 80.8 1011.2 11.4 WNW 25.0 NW 0.0 41.9
14:55 7.4 6.8 80.2 1011.1 13.3 WNW 25.0 NW 0.0 41.6
15:00 7.5 6.8 79.9 1011.2 9.6 NW 16.9 NW 0.0 42.6
15:05 7.4 6.7 80.4 1011.2 10.1 NNW 19.6 NNW 0.0 42.4
15:10 7.4 6.7 80.4 1011.2 11.0 NW 22.3 WNW 0.0 42.7
15:15 7.5 6.7 79.6 1011.2 11.9 WNW 22.3 NNW 0.0 43.2
15:20 7.6 6.8 79.4 1011.2 12.0 WNW 19.6 WNW 0.0 43.9
15:25 7.6 6.7 79.4 1011.2 10.2 NW 19.6 WNW 0.0 39.9
15:30 7.5 6.7 79.5 1011.2 12.9 NW 22.3 NW 0.0 34.1
15:35 7.5 6.6 79.6 1011.2 13.1 WNW 22.3 WNW 0.0 29.9
15:40 7.5 6.5 79.7 1011.2 13.4 WNW 19.6 WNW 0.0 24.8
15:45 7.5 6.4 79.7 1011.1 13.5 WNW 22.3 WNW 0.0 21.0
15:50 7.5 6.4 79.7 1011.2 11.5 WNW 19.6 NW 0.0 17.4
15:55 7.4 6.3 80.2 1011.2 11.6 WNW 19.6 WNW 0.0 14.7
16:00 7.5 6.2 80.3 1011.2 13.3 WNW 25.0 WNW 0.0 11.5
16:05 7.5 6.2 80.2 1011.3 16.5 WNW 30.4 WNW 0.0 9.0
16:10 7.5 6.2 80.3 1011.4 14.4 WNW 27.7 WNW 0.0 7.8
16:15 7.4 6.1 80.5 1011.4 12.9 WNW 22.3 WNW 0.0 5.9
Máxima 10.6 13.9 94.0 1015.9 30.8 WNW 65.5 WNW 0.0 526.2
Mínima 3.6 2.3 65.9 1011.0
Total 0.0